New Bedford, MA (02740)

12:36 AM EDT on July 26, 2016 (GMT -0400)
Buttonwoood Park Area | | Change Station

Elev 92 ft 41.63 °N, 70.95 °W | Updated 4 seconds ago

Clear
Clear
74.1 °F
Feels Like 71 °F
N
0.0
Wind Variable Wind from South
Gusts 0.7 mph

Today
High -- | Low -- °F
--% Chance of Precip.
Yesterday
High -- | Low -- °F
Precip. -- in
Pressure 29.80 in
Visibility 10.0 miles
Clouds Clear
Heat Index 71 °F
Dew Point 73 °F
Humidity 96%
Rainfall 0.00 in
Snow Depth Not available.
5:32 AM 8:07 PM
Waning Gibbous, 59% visible
METAR KEWB 260353Z 22007KT 10SM CLR 24/22 A2980 RMK AO2 SLP089 T02390222
Pressure 29.80 in
Visibility 10.0 miles
Clouds Clear
Heat Index 71 °F
Dew Point 73 °F
Humidity 96%
Rainfall 0.00 in
Snow Depth Not available.
5:32 AM 8:07 PM
Waning Gibbous, 59% visible
METAR KEWB 260353Z 22007KT 10SM CLR 24/22 A2980 RMK AO2 SLP089 T02390222

10-Day Weather Forecast

Almanac

Astronomy

Jul. 26, 2016 Rise Set
Actual Time
Civil Twilight
Nautical Twilight
Astronomical Twilight
Moon
Length of Visible Light
Length of Day
Tomorrow will be .
, % of the Moon is Illuminated

Today's Extremes

State Highs State Lows

Community

WunderPhotos

Upload Photos

1,927,534 photos uploaded!

WunderBlog® & News

Nearby

Air Quality

  Air Quality AQ Index Pollutant
Not available.

Snow Depth

Station Depth Elevation

Earthquake Activity

City Distance Mag. Time & Date
Minimum magnitude displayed is 2.5.

Coastal Water Temperatures

Place Temperature

Stations

Nearby Weather Stations

Station Location Temp. Windchill Dew Point Humidity Wind Precip. Elev Updated Type
                   

Watches & Warnings

There are currently no watches in effect.